createdAt,value
2023-02-27T00:01:24.931Z,97399.78
2023-02-27T00:03:51.607Z,97400.00
2023-02-27T00:06:18.092Z,97388.25
2023-02-27T00:08:47.918Z,97396.69
2023-02-27T00:11:15.888Z,97407.94
2023-02-27T00:13:42.539Z,97395.63
2023-02-27T00:16:11.216Z,97411.28
2023-02-27T00:18:39.008Z,97414.22
2023-02-27T00:21:05.752Z,97401.09
2023-02-27T00:23:32.326Z,97411.28
2023-02-27T00:26:00.996Z,97398.00
2023-02-27T00:28:28.431Z,97409.59
2023-02-27T00:30:55.015Z,97415.06
2023-02-27T00:33:22.025Z,97408.44
2023-02-27T00:36:06.641Z,97415.16
2023-02-27T00:38:33.195Z,97411.97
2023-02-27T00:40:59.687Z,97418.25
2023-02-27T00:43:26.673Z,97415.16
2023-02-27T00:45:53.167Z,97414.97
2023-02-27T00:48:19.805Z,97416.63
2023-02-27T00:50:50.361Z,97404.63
2023-02-27T00:53:19.943Z,97407.63
2023-02-27T00:55:49.214Z,97400.38
2023-02-27T00:58:18.417Z,97411.63
2023-02-27T01:00:44.999Z,97417.56
2023-02-27T01:03:11.547Z,97414.22
2023-02-27T01:05:38.179Z,97419.44
2023-02-27T01:08:05.039Z,97415.91
2023-02-27T01:10:31.660Z,97416.16
2023-02-27T01:12:58.146Z,97406.66
2023-02-27T01:15:24.738Z,97403.94
2023-02-27T01:17:51.468Z,97417.44
2023-02-27T01:20:21.653Z,97414.22
2023-02-27T01:22:51.113Z,97412.00
2023-02-27T01:25:18.597Z,97409.16
2023-02-27T01:27:45.302Z,97412.25
2023-02-27T01:30:14.618Z,97421.34
2023-02-27T01:32:41.275Z,97417.06
2023-02-27T01:35:08.395Z,97431.06
2023-02-27T01:37:34.929Z,97421.69
2023-02-27T01:40:01.423Z,97405.56
2023-02-27T01:42:28.885Z,97429.88
2023-02-27T01:45:02.541Z,97431.28
2023-02-27T01:47:29.016Z,97426.56
2023-02-27T01:49:55.853Z,97443.84
2023-02-27T01:52:22.416Z,97450.22
2023-02-27T01:54:50.987Z,97447.75
2023-02-27T01:57:17.444Z,97445.16
2023-02-27T01:59:43.987Z,97449.97
2023-02-27T02:02:21.999Z,97443.84
2023-02-27T02:04:53.172Z,97451.19
2023-02-27T02:07:25.193Z,97451.88
2023-02-27T02:09:54.776Z,97445.25
2023-02-27T02:12:26.954Z,97450.84
2023-02-27T02:14:53.416Z,97427.00
2023-02-27T02:17:45.409Z,97451.53
2023-02-27T02:20:28.716Z,97448.56
2023-02-27T02:23:13.847Z,97457.34
2023-02-27T02:25:49.327Z,97461.22
2023-02-27T02:28:43.216Z,97463.94
2023-02-27T02:31:29.052Z,97464.28
2023-02-27T02:34:10.967Z,97469.41
2023-02-27T02:37:05.979Z,97457.66
2023-02-27T02:39:57.136Z,97469.75
2023-02-27T02:42:49.004Z,97466.28
2023-02-27T02:46:08.151Z,97469.59
2023-02-27T02:48:48.090Z,97471.25
2023-02-27T02:51:20.386Z,97487.63
2023-02-27T02:54:08.536Z,97497.53
2023-02-27T02:56:37.719Z,97495.91
2023-02-27T02:59:16.118Z,97482.53
2023-02-27T03:01:53.966Z,97494.13
2023-02-27T03:04:31.873Z,97503.84
2023-02-27T03:07:09.825Z,97479.53
2023-02-27T03:09:42.813Z,97488.16
2023-02-27T03:12:11.989Z,97497.44
2023-02-27T03:14:46.545Z,97499.03
2023-02-27T03:17:26.137Z,97501.91
2023-02-27T03:19:55.767Z,97497.06
2023-02-27T03:22:30.303Z,97493.16
2023-02-27T03:25:00.472Z,97503.91
2023-02-27T03:27:32.292Z,97496.06
2023-02-27T03:30:07.462Z,97495.72
2023-02-27T03:32:46.446Z,97500.72
2023-02-27T03:35:13.762Z,97493.69
2023-02-27T03:38:02.209Z,97510.03
2023-02-27T03:41:07.130Z,97507.81
2023-02-27T03:43:44.657Z,97501.03
2023-02-27T03:46:15.153Z,97508.22
2023-02-27T03:48:44.648Z,97516.22
2023-02-27T03:51:13.767Z,97518.88
2023-02-27T03:54:09.736Z,97527.06
2023-02-27T03:56:57.725Z,97531.19
2023-02-27T03:59:25.136Z,97528.47
2023-02-27T04:01:53.274Z,97526.84
2023-02-27T04:04:19.827Z,97523.53
2023-02-27T04:07:10.630Z,97530.66
2023-02-27T04:09:58.429Z,97510.03
2023-02-27T04:12:24.813Z,97530.09
2023-02-27T04:15:12.123Z,97530.88
2023-02-27T04:17:44.132Z,97538.88
2023-02-27T04:20:20.645Z,97545.66
2023-02-27T04:22:52.937Z,97545.53
2023-02-27T04:25:41.863Z,97544.50
2023-02-27T04:28:25.067Z,97551.13
2023-02-27T04:31:24.873Z,97549.06
2023-02-27T04:34:22.365Z,97554.13
2023-02-27T04:36:56.278Z,97556.72
2023-02-27T04:39:28.012Z,97568.22
2023-02-27T04:42:02.206Z,97567.84
2023-02-27T04:44:32.563Z,97571.84
2023-02-27T04:47:01.490Z,97572.69
2023-02-27T04:50:00.989Z,97576.38
2023-02-27T04:52:37.302Z,97570.69
2023-02-27T04:55:23.168Z,97555.25
2023-02-27T04:58:01.829Z,97563.53
2023-02-27T05:00:32.608Z,97584.53
2023-02-27T05:03:22.852Z,97576.50
2023-02-27T05:05:52.830Z,97580.03
2023-02-27T05:08:58.037Z,97590.13
2023-02-27T05:11:48.225Z,97589.81
2023-02-27T05:14:31.617Z,97591.34
2023-02-27T05:17:09.265Z,97589.63
2023-02-27T05:19:40.775Z,97595.22
2023-02-27T05:22:13.220Z,97595.94
2023-02-27T05:24:56.866Z,97584.09
2023-02-27T05:27:41.249Z,97592.88
2023-02-27T05:30:17.560Z,97599.00
2023-02-27T05:32:49.510Z,97600.81
2023-02-27T05:35:19.764Z,97602.78
2023-02-27T05:37:51.515Z,97614.19
2023-02-27T05:40:28.567Z,97598.22
2023-02-27T05:43:06.498Z,97608.53
2023-02-27T05:45:36.837Z,97609.47
2023-02-27T05:48:27.636Z,97608.97
2023-02-27T05:50:56.094Z,97625.91
2023-02-27T05:53:28.176Z,97622.25
2023-02-27T05:55:58.652Z,97617.13
2023-02-27T05:58:35.973Z,97624.53
2023-02-27T06:01:06.840Z,97636.16
2023-02-27T06:03:39.977Z,97623.53
2023-02-27T06:06:11.436Z,97632.38
2023-02-27T06:08:38.072Z,97633.19
2023-02-27T06:11:08.109Z,97637.78
2023-02-27T06:13:34.730Z,97623.31
2023-02-27T06:16:01.288Z,97638.47
2023-02-27T06:18:28.033Z,97634.34
2023-02-27T06:20:54.541Z,97628.66
2023-02-27T06:23:21.271Z,97629.28
2023-02-27T06:25:49.256Z,97659.75
2023-02-27T06:28:15.864Z,97661.53
2023-02-27T06:30:43.033Z,97665.31
2023-02-27T06:33:12.344Z,97663.50
2023-02-27T06:35:39.233Z,97668.53
2023-02-27T06:38:08.537Z,97679.94
2023-02-27T06:40:35.016Z,97677.97
2023-02-27T06:43:01.552Z,97677.75
2023-02-27T06:45:28.038Z,97688.91
2023-02-27T06:47:54.507Z,97694.81
2023-02-27T06:50:21.175Z,97699.63
2023-02-27T06:52:47.653Z,97695.34
2023-02-27T06:55:19.917Z,97701.41
2023-02-27T06:57:49.511Z,97718.03
2023-02-27T07:00:17.036Z,97726.47
2023-02-27T07:02:43.535Z,97727.28
2023-02-27T07:05:11.949Z,97726.06
2023-02-27T07:07:39.210Z,97730.19
2023-02-27T07:10:08.708Z,97732.19
2023-02-27T07:12:35.263Z,97733.00
2023-02-27T07:15:01.807Z,97738.94
2023-02-27T07:17:28.305Z,97729.88
2023-02-27T07:19:54.789Z,97743.25
2023-02-27T07:22:21.264Z,97738.50
2023-02-27T07:24:47.720Z,97744.09
2023-02-27T07:27:14.261Z,97755.78
2023-02-27T07:29:40.869Z,97752.97
2023-02-27T07:32:09.757Z,97762.03
2023-02-27T07:34:36.363Z,97773.28
2023-02-27T07:37:03.108Z,97772.34
2023-02-27T07:39:29.674Z,97764.44
2023-02-27T07:41:56.116Z,97760.88
2023-02-27T07:44:22.870Z,97765.03
2023-02-27T07:46:49.417Z,97721.72
2023-02-27T07:49:15.937Z,97766.00
2023-02-27T07:51:42.411Z,97784.00
2023-02-27T07:54:12.493Z,97755.09
2023-02-27T07:56:41.725Z,97775.88
2023-02-27T07:59:10.462Z,97790.66
2023-02-27T08:01:36.907Z,97776.13
2023-02-27T08:04:03.440Z,97797.69
2023-02-27T08:06:30.284Z,97795.50
2023-02-27T08:08:56.881Z,97811.22
2023-02-27T08:11:23.525Z,97807.03
2023-02-27T08:14:05.436Z,97810.88
2023-02-27T08:16:32.666Z,97813.38
2023-02-27T08:19:00.456Z,97792.34
2023-02-27T08:21:28.083Z,97825.97
2023-02-27T08:23:55.290Z,97829.94
2023-02-27T08:26:22.155Z,97834.56
2023-02-27T08:28:48.710Z,97811.47
2023-02-27T08:31:15.218Z,97844.34
2023-02-27T08:33:41.718Z,97805.75
2023-02-27T08:36:08.518Z,97823.75
2023-02-27T08:38:35.034Z,97846.16
2023-02-27T08:41:01.511Z,97816.47
2023-02-27T08:43:28.023Z,97810.75
2023-02-27T08:45:54.548Z,97823.69
2023-02-27T08:48:21.198Z,97847.13
2023-02-27T08:50:47.789Z,97838.25
2023-02-27T08:53:14.452Z,97850.97
2023-02-27T08:55:41.330Z,97826.13
2023-02-27T08:58:11.326Z,97815.94
2023-02-27T09:00:42.293Z,97787.78
2023-02-27T09:03:09.754Z,97780.19
2023-02-27T09:05:45.326Z,97802.28
2023-02-27T09:08:11.888Z,97846.84
2023-02-27T09:10:38.664Z,97808.97
2023-02-27T09:13:05.233Z,97836.72
2023-02-27T09:15:34.391Z,97819.03
2023-02-27T09:18:03.182Z,97805.75
2023-02-27T09:20:35.955Z,97827.81
2023-02-27T09:23:03.845Z,97853.72
2023-02-27T09:25:30.753Z,97859.72
2023-02-27T09:27:57.692Z,97861.97
2023-02-27T09:30:24.735Z,97817.72
2023-02-27T09:32:51.505Z,97860.88
2023-02-27T09:35:20.449Z,97862.25
2023-02-27T09:37:47.258Z,97815.56
2023-02-27T09:40:24.548Z,97843.47
2023-02-27T09:42:53.435Z,97838.94
2023-02-27T09:45:26.406Z,97853.50
2023-02-27T09:47:56.619Z,97863.78
2023-02-27T09:50:40.622Z,97870.63
2023-02-27T09:53:18.933Z,97872.78
2023-02-27T09:55:46.631Z,97875.47
2023-02-27T09:58:34.821Z,97890.69
2023-02-27T10:01:20.881Z,97855.81
2023-02-27T10:03:50.210Z,97889.88
2023-02-27T10:06:32.326Z,97878.28
2023-02-27T10:09:09.975Z,97894.78
2023-02-27T10:11:48.823Z,97897.44
2023-02-27T10:14:39.598Z,97887.19
2023-02-27T10:17:13.865Z,97893.41
2023-02-27T10:19:43.016Z,97867.63
2023-02-27T10:22:16.470Z,97870.97
2023-02-27T10:24:50.104Z,97912.44
2023-02-27T10:27:20.269Z,97899.97
2023-02-27T10:29:46.778Z,97887.03
2023-02-27T10:32:27.216Z,97899.13
2023-02-27T10:35:27.201Z,97910.16
2023-02-27T10:37:59.644Z,97914.00
2023-02-27T10:40:26.854Z,97880.03
2023-02-27T10:42:56.142Z,97879.09
2023-02-27T10:45:22.844Z,97900.00
2023-02-27T10:47:49.256Z,97900.25
2023-02-27T10:50:32.191Z,97908.69
2023-02-27T10:53:01.873Z,97899.25
2023-02-27T10:55:35.542Z,97885.53
2023-02-27T10:58:04.497Z,97909.56
2023-02-27T11:00:45.145Z,97887.47
2023-02-27T11:03:29.712Z,97901.75
2023-02-27T11:05:59.446Z,97907.94
2023-02-27T11:08:29.078Z,97915.09
2023-02-27T11:11:03.119Z,97916.75
2023-02-27T11:13:33.741Z,97894.25
2023-02-27T11:16:17.207Z,97916.88
2023-02-27T11:18:45.881Z,97918.34
2023-02-27T11:21:22.697Z,97923.94
2023-02-27T11:23:58.751Z,97924.91
2023-02-27T11:26:30.331Z,97919.50
2023-02-27T11:29:18.303Z,97919.03
2023-02-27T11:31:53.314Z,97910.16
2023-02-27T11:34:25.131Z,97889.25
2023-02-27T11:36:55.661Z,97914.09
2023-02-27T11:39:35.042Z,97891.28
2023-02-27T11:42:41.601Z,97908.75
2023-02-27T11:46:04.587Z,97916.19
2023-02-27T11:48:19.729Z,97900.06
2023-02-27T11:51:00.853Z,97914.97
2023-02-27T11:53:45.684Z,97914.28
2023-02-27T11:56:18.662Z,97906.38
2023-02-27T11:59:05.593Z,97916.16
2023-02-27T12:01:42.900Z,97911.91
2023-02-27T12:04:21.149Z,97898.44
2023-02-27T12:07:23.214Z,97892.69
2023-02-27T12:09:59.501Z,97907.94
2023-02-27T12:12:36.258Z,97896.25
2023-02-27T12:15:15.257Z,97915.22
2023-02-27T12:17:47.821Z,97908.81
2023-02-27T12:20:29.365Z,97905.75
2023-02-27T12:22:56.306Z,97882.31
2023-02-27T12:25:34.256Z,97900.91
2023-02-27T12:28:18.798Z,97909.22
2023-02-27T12:31:12.925Z,97885.56
2023-02-27T12:34:11.952Z,97895.63
2023-02-27T12:36:41.177Z,97901.81
2023-02-27T12:39:18.805Z,97909.22
2023-02-27T12:42:03.624Z,97907.84
2023-02-27T12:44:41.933Z,97916.59
2023-02-27T12:47:20.528Z,97913.00
2023-02-27T12:50:15.227Z,97891.03
2023-02-27T12:53:17.114Z,97916.47
2023-02-27T12:55:54.778Z,97899.41
2023-02-27T12:58:35.264Z,97890.88
2023-02-27T13:01:13.851Z,97901.41
2023-02-27T13:03:54.343Z,97913.53
2023-02-27T13:06:40.889Z,97916.28
2023-02-27T13:09:20.868Z,97920.38
2023-02-27T13:11:58.390Z,97904.19
2023-02-27T13:14:43.581Z,97915.56
2023-02-27T13:17:36.947Z,97935.06
2023-02-27T13:20:14.929Z,97929.25
2023-02-27T13:22:47.420Z,97929.25
2023-02-27T13:25:16.127Z,97927.19
2023-02-27T13:27:47.477Z,97929.41
2023-02-27T13:30:17.114Z,97931.63
2023-02-27T13:33:18.816Z,97924.41
2023-02-27T13:35:56.686Z,97925.75
2023-02-27T13:38:50.455Z,97929.13
2023-02-27T13:41:19.988Z,97939.66
2023-02-27T13:43:55.996Z,97942.25
2023-02-27T13:46:34.680Z,97944.69
2023-02-27T13:49:04.102Z,97940.69
2023-02-27T13:51:36.571Z,97951.66
2023-02-27T13:54:31.124Z,97957.22
2023-02-27T13:57:25.293Z,97949.75
2023-02-27T14:00:05.009Z,97956.78
2023-02-27T14:02:40.249Z,97949.31
2023-02-27T14:05:17.566Z,97951.13
2023-02-27T14:08:19.184Z,97941.84
2023-02-27T14:11:12.928Z,97951.69
2023-02-27T14:13:45.161Z,97959.72
2023-02-27T14:16:38.362Z,97956.81
2023-02-27T14:19:17.803Z,97955.56
2023-02-27T14:21:56.488Z,97957.91
2023-02-27T14:24:33.823Z,97960.25
2023-02-27T14:27:01.353Z,97968.69
2023-02-27T14:29:33.426Z,97966.34
2023-02-27T14:32:03.879Z,97962.59
2023-02-27T14:34:31.226Z,97954.16
2023-02-27T14:37:02.266Z,97972.28
2023-02-27T14:39:33.286Z,97969.78
2023-02-27T14:42:18.562Z,97972.28
2023-02-27T14:44:47.128Z,97933.09
2023-02-27T14:47:37.514Z,97970.09
2023-02-27T14:50:07.783Z,97968.97
2023-02-27T14:52:42.661Z,97970.47
2023-02-27T14:55:29.137Z,97966.44
2023-02-27T14:57:55.739Z,97972.09
2023-02-27T15:00:50.375Z,97966.34
2023-02-27T15:03:22.672Z,97968.69
2023-02-27T15:05:54.917Z,97965.34
2023-02-27T15:08:28.587Z,97967.16
2023-02-27T15:10:57.124Z,97954.16
2023-02-27T15:13:37.359Z,97964.38
2023-02-27T15:16:34.043Z,97974.94
2023-02-27T15:19:20.046Z,97952.81
2023-02-27T15:21:51.848Z,97969.25
2023-02-27T15:24:26.163Z,97953.16
2023-02-27T15:26:59.558Z,97978.47
2023-02-27T15:29:40.137Z,97954.94
2023-02-27T15:32:07.526Z,97973.75
2023-02-27T15:34:35.387Z,97968.25
2023-02-27T15:37:02.546Z,97951.25
2023-02-27T15:39:31.530Z,97984.13
2023-02-27T15:42:05.529Z,97966.38
2023-02-27T15:44:40.725Z,97979.78
2023-02-27T15:47:10.764Z,97971.31
2023-02-27T15:49:37.502Z,97977.88
2023-02-27T15:52:18.585Z,97978.56
2023-02-27T15:55:10.613Z,97986.81
2023-02-27T15:57:37.123Z,97939.53
2023-02-27T16:00:06.727Z,97992.78
2023-02-27T16:02:54.238Z,97996.28
2023-02-27T16:05:24.890Z,98000.75
2023-02-27T16:07:52.294Z,97966.41
2023-02-27T16:10:26.657Z,97985.75
2023-02-27T16:12:54.039Z,97992.94
2023-02-27T16:15:27.101Z,97975.63
2023-02-27T16:18:08.924Z,98017.25
2023-02-27T16:20:40.886Z,98007.97
2023-02-27T16:23:23.847Z,98013.94
2023-02-27T16:26:20.888Z,98021.56
2023-02-27T16:28:51.202Z,98029.03
2023-02-27T16:31:25.332Z,98000.63
2023-02-27T16:33:53.045Z,98038.25
2023-02-27T16:36:22.706Z,98026.81
2023-02-27T16:38:49.194Z,98015.31
2023-02-27T16:41:17.541Z,98015.19
2023-02-27T16:43:48.429Z,98037.94
2023-02-27T16:46:20.333Z,98023.22
2023-02-27T16:48:53.303Z,98022.41
2023-02-27T16:51:23.839Z,98057.91
2023-02-27T16:53:56.648Z,98032.34
2023-02-27T16:56:37.259Z,98055.53
2023-02-27T16:59:05.005Z,98023.75
2023-02-27T17:01:33.862Z,98010.28
2023-02-27T17:04:01.110Z,98071.75
2023-02-27T17:06:28.127Z,98051.19
2023-02-27T17:08:56.007Z,98065.16
2023-02-27T17:11:22.930Z,98055.75
2023-02-27T17:13:49.434Z,98054.81
2023-02-27T17:16:16.147Z,98064.88
2023-02-27T17:18:46.819Z,98064.88
2023-02-27T17:21:16.331Z,98052.34
2023-02-27T17:23:46.390Z,98068.38
2023-02-27T17:26:18.302Z,98094.47
2023-02-27T17:28:47.882Z,98091.84
2023-02-27T17:31:15.884Z,98103.06
2023-02-27T17:33:46.593Z,98071.94
2023-02-27T17:36:16.412Z,98073.06
2023-02-27T17:38:46.087Z,98100.28
2023-02-27T17:41:14.938Z,98093.78
2023-02-27T17:43:43.651Z,98087.75
2023-02-27T17:46:14.937Z,98092.88
2023-02-27T17:48:44.661Z,98102.75
2023-02-27T17:51:17.033Z,98103.75
2023-02-27T17:53:49.861Z,98114.94
2023-02-27T17:56:16.620Z,98098.41
2023-02-27T17:58:46.906Z,98106.03
2023-02-27T18:01:21.684Z,98129.84
2023-02-27T18:03:49.498Z,98135.06
2023-02-27T18:06:17.066Z,98138.63
2023-02-27T18:08:47.297Z,98115.91
2023-02-27T18:11:23.957Z,98150.31
2023-02-27T18:13:53.355Z,98085.91
2023-02-27T18:16:22.018Z,98162.19
2023-02-27T18:18:49.408Z,98150.41
2023-02-27T18:21:20.287Z,98160.75
2023-02-27T18:23:51.839Z,98168.41
2023-02-27T18:26:30.490Z,98162.56
2023-02-27T18:29:06.047Z,98168.75
2023-02-27T18:31:38.479Z,98182.06
2023-02-27T18:34:05.577Z,98172.50
2023-02-27T18:36:33.627Z,98156.81
2023-02-27T18:39:01.377Z,98177.28
2023-02-27T18:41:29.405Z,98178.91
2023-02-27T18:44:11.328Z,98163.78
2023-02-27T18:46:39.048Z,98156.41
2023-02-27T18:49:06.027Z,98189.06
2023-02-27T18:51:32.658Z,98181.16
2023-02-27T18:54:00.828Z,98180.69
2023-02-27T18:56:30.348Z,98170.94
2023-02-27T18:58:58.239Z,98192.56
2023-02-27T19:01:31.065Z,98189.97
2023-02-27T19:04:03.417Z,98179.13
2023-02-27T19:06:35.083Z,98175.34
2023-02-27T19:09:03.854Z,98191.38
2023-02-27T19:11:34.647Z,98195.31
2023-02-27T19:14:03.845Z,98191.50
2023-02-27T19:16:30.989Z,98194.22
2023-02-27T19:18:59.319Z,98198.88
2023-02-27T19:21:26.893Z,98201.88
2023-02-27T19:23:54.559Z,98196.53
2023-02-27T19:26:22.019Z,98204.22
2023-02-27T19:28:54.218Z,98219.97
2023-02-27T19:31:24.017Z,98220.28
2023-02-27T19:33:50.724Z,98161.94
2023-02-27T19:36:20.779Z,98209.84
2023-02-27T19:38:47.358Z,98209.28
2023-02-27T19:41:17.814Z,98152.28
2023-02-27T19:43:48.506Z,98181.84
2023-02-27T19:46:24.375Z,98214.88
2023-02-27T19:48:52.697Z,98213.47
2023-02-27T19:51:19.562Z,98219.13
2023-02-27T19:53:48.372Z,98216.25
2023-02-27T19:56:18.406Z,98215.75
2023-02-27T19:58:49.000Z,98217.75
2023-02-27T20:01:31.988Z,98204.31
2023-02-27T20:03:59.900Z,98216.19
2023-02-27T20:06:29.456Z,98212.59
2023-02-27T20:08:57.866Z,98200.94
2023-02-27T20:11:24.503Z,98215.56
2023-02-27T20:13:51.949Z,98220.59
2023-02-27T20:16:22.143Z,98208.78
2023-02-27T20:18:49.083Z,98207.59
2023-02-27T20:21:23.899Z,98210.88
2023-02-27T20:23:51.865Z,98217.50
2023-02-27T20:26:26.527Z,98215.59
2023-02-27T20:28:56.339Z,98222.59
2023-02-27T20:31:25.765Z,98222.09
2023-02-27T20:33:52.329Z,98208.25
2023-02-27T20:36:19.172Z,98227.22
2023-02-27T20:38:48.885Z,98219.38
2023-02-27T20:41:20.474Z,98214.50
2023-02-27T20:43:47.626Z,98222.19
2023-02-27T20:46:22.472Z,98216.72
2023-02-27T20:48:49.642Z,98221.81
2023-02-27T20:51:20.589Z,98223.69
2023-02-27T20:53:49.344Z,98230.78
2023-02-27T20:56:19.631Z,98220.03
2023-02-27T20:58:46.487Z,98221.94
2023-02-27T21:01:17.668Z,98224.31
2023-02-27T21:03:46.841Z,98227.16
2023-02-27T21:06:19.153Z,98224.72
2023-02-27T21:08:48.293Z,98213.38
2023-02-27T21:11:21.707Z,98222.59
2023-02-27T21:13:50.039Z,98211.03
2023-02-27T21:16:18.210Z,98227.94
2023-02-27T21:18:51.670Z,98215.81
2023-02-27T21:21:24.458Z,98238.78
2023-02-27T21:23:51.651Z,98216.75
2023-02-27T21:26:24.090Z,98232.19
2023-02-27T21:29:02.765Z,98218.72
2023-02-27T21:31:32.480Z,98228.88
2023-02-27T21:34:02.762Z,98215.06
2023-02-27T21:36:32.356Z,98230.53
2023-02-27T21:39:01.738Z,98228.78
2023-02-27T21:41:29.413Z,98235.13
2023-02-27T21:44:05.537Z,98227.72
2023-02-27T21:46:32.937Z,98232.31
2023-02-27T21:48:59.847Z,98230.09
2023-02-27T21:51:39.606Z,98205.50
2023-02-27T21:54:07.315Z,98223.44
2023-02-27T21:56:33.880Z,98225.53
2023-02-27T21:59:01.782Z,98220.94
2023-02-27T22:01:29.649Z,98208.19
2023-02-27T22:03:57.340Z,98216.34
2023-02-27T22:06:26.203Z,98215.53
2023-02-27T22:08:56.880Z,98228.31
2023-02-27T22:11:25.316Z,98230.56
2023-02-27T22:13:52.190Z,98219.16
2023-02-27T22:16:19.513Z,98215.50
2023-02-27T22:18:51.603Z,98222.72
2023-02-27T22:21:22.633Z,98222.72
2023-02-27T22:23:50.247Z,98226.25
2023-02-27T22:26:22.753Z,98225.22
2023-02-27T22:28:51.025Z,98214.25
2023-02-27T22:31:26.988Z,98227.09
2023-02-27T22:33:56.129Z,98222.19
2023-02-27T22:36:29.303Z,98200.59
2023-02-27T22:38:56.645Z,98210.47
2023-02-27T22:41:26.321Z,98205.47
2023-02-27T22:43:53.404Z,98226.25
2023-02-27T22:46:29.237Z,98227.22
2023-02-27T22:48:57.009Z,98223.13
2023-02-27T22:51:25.519Z,98221.75
2023-02-27T22:53:52.081Z,98221.75
2023-02-27T22:56:20.305Z,98200.06
2023-02-27T22:58:49.999Z,98222.69
2023-02-27T23:01:23.544Z,98221.88
2023-02-27T23:03:53.772Z,98221.06
2023-02-27T23:06:30.972Z,98209.84
2023-02-27T23:08:58.212Z,98200.59
2023-02-27T23:11:24.777Z,98205.06
2023-02-27T23:13:54.500Z,98219.16
2023-02-27T23:16:21.614Z,98217.59
2023-02-27T23:18:52.330Z,98210.38
2023-02-27T23:21:26.655Z,98210.28
2023-02-27T23:23:57.994Z,98213.50
2023-02-27T23:26:28.643Z,98223.22
2023-02-27T23:28:56.590Z,98222.09
2023-02-27T23:31:23.334Z,98211.22
2023-02-27T23:33:53.499Z,98213.22
2023-02-27T23:36:22.275Z,98228.25
2023-02-27T23:38:48.785Z,98211.03
2023-02-27T23:41:17.423Z,98229.91
2023-02-27T23:43:44.734Z,98218.22
2023-02-27T23:46:14.022Z,98233.47
2023-02-27T23:48:41.157Z,98221.06
2023-02-27T23:51:09.242Z,98234.72
2023-02-27T23:53:37.761Z,98238.38
2023-02-27T23:56:20.350Z,98221.88
2023-02-27T23:58:47.909Z,98228.44
